sensor_id;sensor_type;location;lat;lon;timestamp;pressure;altitude;pressure_sealevel;temperature;humidity
53719;BME280;39616;48.872;9.390;2023-04-09T00:00:24;99023.28;;;6.07;100.00
53719;BME280;39616;48.872;9.390;2023-04-09T00:02:55;99021.59;;;6.00;100.00
53719;BME280;39616;48.872;9.390;2023-04-09T00:05:26;99029.66;;;6.00;100.00
53719;BME280;39616;48.872;9.390;2023-04-09T00:07:56;99021.59;;;6.00;100.00
53719;BME280;39616;48.872;9.390;2023-04-09T00:10:26;99017.34;;;6.04;100.00
53719;BME280;39616;48.872;9.390;2023-04-09T00:12:57;99021.03;;;5.98;100.00
53719;BME280;39616;48.872;9.390;2023-04-09T00:15:27;99022.91;;;5.98;100.00
53719;BME280;39616;48.872;9.390;2023-04-09T00:17:58;99018.81;;;5.95;100.00
53719;BME280;39616;48.872;9.390;2023-04-09T00:20:28;99022.31;;;5.96;100.00
53719;BME280;39616;48.872;9.390;2023-04-09T00:22:58;99019.13;;;5.99;100.00
53719;BME280;39616;48.872;9.390;2023-04-09T00:25:29;99013.53;;;6.00;100.00
53719;BME280;39616;48.872;9.390;2023-04-09T00:27:59;99017.34;;;6.04;100.00
53719;BME280;39616;48.872;9.390;2023-04-09T00:30:30;99012.00;;;6.10;100.00
53719;BME280;39616;48.872;9.390;2023-04-09T00:33:00;99009.88;;;6.12;100.00
53719;BME280;39616;48.872;9.390;2023-04-09T00:35:31;99013.13;;;6.14;100.00
53719;BME280;39616;48.872;9.390;2023-04-09T00:38:01;99013.72;;;6.16;100.00
53719;BME280;39616;48.872;9.390;2023-04-09T00:40:31;99008.25;;;6.11;100.00
53719;BME280;39616;48.872;9.390;2023-04-09T00:43:02;99009.50;;;6.03;100.00
53719;BME280;39616;48.872;9.390;2023-04-09T00:45:32;99008.38;;;5.99;100.00
53719;BME280;39616;48.872;9.390;2023-04-09T00:48:03;99007.81;;;5.97;100.00
53719;BME280;39616;48.872;9.390;2023-04-09T00:50:33;99019.41;;;5.97;100.00
53719;BME280;39616;48.872;9.390;2023-04-09T00:53:04;99010.25;;;5.98;100.00
53719;BME280;39616;48.872;9.390;2023-04-09T00:55:35;99014.97;;;5.91;100.00
53719;BME280;39616;48.872;9.390;2023-04-09T00:58:06;99012.78;;;5.88;100.00
53719;BME280;39616;48.872;9.390;2023-04-09T01:00:36;99015.47;;;5.88;100.00
53719;BME280;39616;48.872;9.390;2023-04-09T01:03:07;99021.59;;;5.84;100.00
53719;BME280;39616;48.872;9.390;2023-04-09T01:08:43;99017.47;;;5.76;100.00
53719;BME280;39616;48.872;9.390;2023-04-09T01:17:44;99012.06;;;5.76;100.00
53719;BME280;39616;48.872;9.390;2023-04-09T01:20:39;99019.88;;;5.77;100.00
53719;BME280;39616;48.872;9.390;2023-04-09T01:26:07;99012.06;;;5.76;100.00
53719;BME280;39616;48.872;9.390;2023-04-09T01:28:42;99015.09;;;5.79;100.00
53719;BME280;39616;48.872;9.390;2023-04-09T01:31:17;99018.66;;;5.85;100.00
53719;BME280;39616;48.872;9.390;2023-04-09T01:33:47;99015.13;;;5.85;100.00
53719;BME280;39616;48.872;9.390;2023-04-09T01:36:19;99012.72;;;5.83;100.00
53719;BME280;39616;48.872;9.390;2023-04-09T01:38:50;99014.00;;;5.80;100.00
53719;BME280;39616;48.872;9.390;2023-04-09T01:41:22;99010.44;;;5.75;100.00
53719;BME280;39616;48.872;9.390;2023-04-09T01:43:53;99020.09;;;5.71;100.00
53719;BME280;39616;48.872;9.390;2023-04-09T01:46:24;99019.56;;;5.74;100.00
53719;BME280;39616;48.872;9.390;2023-04-09T01:48:55;99006.38;;;5.72;100.00
53719;BME280;39616;48.872;9.390;2023-04-09T01:51:26;99017.47;;;5.76;100.00
53719;BME280;39616;48.872;9.390;2023-04-09T01:53:58;99022.34;;;5.79;100.00
53719;BME280;39616;48.872;9.390;2023-04-09T01:56:42;99008.81;;;5.74;100.00
53719;BME280;39616;48.872;9.390;2023-04-09T01:59:14;99018.22;;;5.71;100.00
53719;BME280;39616;48.872;9.390;2023-04-09T02:01:46;99019.78;;;5.67;100.00
53719;BME280;39616;48.872;9.390;2023-04-09T02:04:26;99019.69;;;5.62;100.00
53719;BME280;39616;48.872;9.390;2023-04-09T02:07:12;99016.16;;;5.62;100.00
53719;BME280;39616;48.872;9.390;2023-04-09T02:09:44;99022.31;;;5.57;100.00
53719;BME280;39616;48.872;9.390;2023-04-09T02:12:18;99013.16;;;5.58;100.00
53719;BME280;39616;48.872;9.390;2023-04-09T02:14:51;99015.31;;;5.56;100.00
53719;BME280;39616;48.872;9.390;2023-04-09T02:17:22;99008.03;;;5.56;100.00
53719;BME280;39616;48.872;9.390;2023-04-09T02:19:52;99008.84;;;5.57;100.00
53719;BME280;39616;48.872;9.390;2023-04-09T02:22:23;99007.94;;;5.51;100.00
53719;BME280;39616;48.872;9.390;2023-04-09T02:24:53;99008.44;;;5.48;100.00
53719;BME280;39616;48.872;9.390;2023-04-09T02:27:23;99002.50;;;5.46;100.00
53719;BME280;39616;48.872;9.390;2023-04-09T02:29:54;99011.38;;;5.47;100.00
53719;BME280;39616;48.872;9.390;2023-04-09T02:32:24;99007.28;;;5.44;100.00
53719;BME280;39616;48.872;9.390;2023-04-09T02:34:55;99007.88;;;5.46;100.00
53719;BME280;39616;48.872;9.390;2023-04-09T02:37:25;99003.91;;;5.49;100.00
53719;BME280;39616;48.872;9.390;2023-04-09T02:39:56;99006.25;;;5.45;100.00
53719;BME280;39616;48.872;9.390;2023-04-09T02:42:26;99009.28;;;5.49;100.00
53719;BME280;39616;48.872;9.390;2023-04-09T02:44:56;99003.56;;;5.45;100.00
53719;BME280;39616;48.872;9.390;2023-04-09T02:47:27;99008.03;;;5.40;100.00
53719;BME280;39616;48.872;9.390;2023-04-09T02:49:59;99003.47;;;5.40;100.00
53719;BME280;39616;48.872;9.390;2023-04-09T02:52:29;99007.22;;;5.39;100.00
53719;BME280;39616;48.872;9.390;2023-04-09T02:54:59;99008.84;;;5.40;100.00
53719;BME280;39616;48.872;9.390;2023-04-09T02:57:30;99000.78;;;5.40;100.00
53719;BME280;39616;48.872;9.390;2023-04-09T03:00:02;99005.63;;;5.38;100.00
53719;BME280;39616;48.872;9.390;2023-04-09T03:02:33;99003.63;;;5.33;100.00
53719;BME280;39616;48.872;9.390;2023-04-09T03:05:03;99000.41;;;5.31;100.00
53719;BME280;39616;48.872;9.390;2023-04-09T03:07:34;98998.25;;;5.33;100.00
53719;BME280;39616;48.872;9.390;2023-04-09T03:10:05;98999.16;;;5.39;100.00
53719;BME280;39616;48.872;9.390;2023-04-09T03:12:37;98991.09;;;5.39;100.00
53719;BME280;39616;48.872;9.390;2023-04-09T03:15:09;98988.91;;;5.36;100.00
53719;BME280;39616;48.872;9.390;2023-04-09T03:17:39;98992.66;;;5.35;100.00
53719;BME280;39616;48.872;9.390;2023-04-09T03:20:10;98994.28;;;5.36;100.00
53719;BME280;39616;48.872;9.390;2023-04-09T03:22:40;98998.59;;;5.37;100.00
53719;BME280;39616;48.872;9.390;2023-04-09T03:25:10;98994.84;;;5.38;100.00
53719;BME280;39616;48.872;9.390;2023-04-09T03:27:41;98991.09;;;5.39;100.00
53719;BME280;39616;48.872;9.390;2023-04-09T03:30:11;98991.09;;;5.39;100.00
53719;BME280;39616;48.872;9.390;2023-04-09T03:32:41;98997.28;;;5.40;100.00
53719;BME280;39616;48.872;9.390;2023-04-09T03:35:12;98992.72;;;5.40;100.00
53719;BME280;39616;48.872;9.390;2023-04-09T03:37:42;98990.59;;;5.42;100.00
53719;BME280;39616;48.872;9.390;2023-04-09T03:40:12;98990.84;;;5.41;100.00
53719;BME280;39616;48.872;9.390;2023-04-09T03:42:43;98994.09;;;5.43;100.00
53719;BME280;39616;48.872;9.390;2023-04-09T03:45:13;99002.50;;;5.46;100.00
53719;BME280;39616;48.872;9.390;2023-04-09T03:47:43;98994.44;;;5.46;100.00
53719;BME280;39616;48.872;9.390;2023-04-09T03:50:14;98998.19;;;5.45;100.00
53719;BME280;39616;48.872;9.390;2023-04-09T03:52:44;98996.53;;;5.44;100.00
53719;BME280;39616;48.872;9.390;2023-04-09T03:55:15;99000.31;;;5.43;100.00
53719;BME280;39616;48.872;9.390;2023-04-09T03:57:45;98991.09;;;5.39;100.00
53719;BME280;39616;48.872;9.390;2023-04-09T04:00:16;98985.97;;;5.38;100.00
53719;BME280;39616;48.872;9.390;2023-04-09T04:02:46;98985.41;;;5.36;100.00
53719;BME280;39616;48.872;9.390;2023-04-09T04:05:16;98990.78;;;5.36;100.00
53719;BME280;39616;48.872;9.390;2023-04-09T04:07:46;98980.81;;;5.36;100.00
53719;BME280;39616;48.872;9.390;2023-04-09T04:10:17;98975.44;;;5.36;100.00
53719;BME280;39616;48.872;9.390;2023-04-09T04:12:47;98986.69;;;5.33;100.00
53719;BME280;39616;48.872;9.390;2023-04-09T04:15:17;98988.50;;;5.27;100.00
53719;BME280;39616;48.872;9.390;2023-04-09T04:17:49;98992.75;;;5.23;100.00
53719;BME280;39616;48.872;9.390;2023-04-09T04:20:19;98993.78;;;5.22;100.00
53719;BME280;39616;48.872;9.390;2023-04-09T04:22:50;98994.31;;;5.19;100.00
53719;BME280;39616;48.872;9.390;2023-04-09T04:25:20;98997.81;;;5.20;100.00
53719;BME280;39616;48.872;9.390;2023-04-09T04:27:50;98997.00;;;5.19;100.00
53719;BME280;39616;48.872;9.390;2023-04-09T04:30:21;98995.59;;;5.17;100.00
53719;BME280;39616;48.872;9.390;2023-04-09T04:32:51;99002.84;;;5.16;100.00
53719;BME280;39616;48.872;9.390;2023-04-09T04:35:21;99007.97;;;5.18;100.00
53719;BME280;39616;48.872;9.390;2023-04-09T04:37:52;99002.03;;;5.16;100.00
53719;BME280;39616;48.872;9.390;2023-04-09T04:40:22;99005.75;;;5.15;100.00
53719;BME280;39616;48.872;9.390;2023-04-09T04:42:52;99013.50;;;5.11;100.00
53719;BME280;39616;48.872;9.390;2023-04-09T04:45:23;99016.19;;;5.11;100.00
53719;BME280;39616;48.872;9.390;2023-04-09T04:47:53;99008.72;;;5.13;100.00
53719;BME280;39616;48.872;9.390;2023-04-09T04:50:23;99017.09;;;5.17;100.00
53719;BME280;39616;48.872;9.390;2023-04-09T04:52:54;99009.59;;;5.19;100.00
53719;BME280;39616;48.872;9.390;2023-04-09T04:55:24;99010.66;;;5.18;100.00
53719;BME280;39616;48.872;9.390;2023-04-09T04:57:55;99014.97;;;5.19;100.00
53719;BME280;39616;48.872;9.390;2023-04-09T05:00:25;99015.56;;;5.21;100.00
53719;BME280;39616;48.872;9.390;2023-04-09T05:02:55;99014.25;;;5.23;100.00
53719;BME280;39616;48.872;9.390;2023-04-09T05:05:26;99018.47;;;5.36;100.00
53719;BME280;39616;48.872;9.390;2023-04-09T05:07:56;99021.91;;;5.31;100.00
53719;BME280;39616;48.872;9.390;2023-04-09T05:10:26;99022.97;;;5.30;100.00
53719;BME280;39616;48.872;9.390;2023-04-09T05:12:56;99021.91;;;5.31;100.00
53719;BME280;39616;48.872;9.390;2023-04-09T05:15:27;99024.59;;;5.31;100.00
53719;BME280;39616;48.872;9.390;2023-04-09T05:17:57;99026.94;;;5.45;100.00
53719;BME280;39616;48.872;9.390;2023-04-09T05:20:30;99029.63;;;5.45;100.00
53719;BME280;39616;48.872;9.390;2023-04-09T05:23:01;99024.84;;;5.47;100.00
53719;BME280;39616;48.872;9.390;2023-04-09T05:25:31;99019.28;;;5.53;100.00
53719;BME280;39616;48.872;9.390;2023-04-09T05:28:01;99024.81;;;5.64;100.00
53719;BME280;39616;48.872;9.390;2023-04-09T05:30:32;99029.19;;;5.70;100.00
53719;BME280;39616;48.872;9.390;2023-04-09T05:33:02;99036.94;;;5.83;100.00
53719;BME280;39616;48.872;9.390;2023-04-09T05:35:32;99028.44;;;5.91;100.00
53719;BME280;39616;48.872;9.390;2023-04-09T05:38:02;99022.41;;;6.01;100.00
53719;BME280;39616;48.872;9.390;2023-04-09T05:40:33;99013.63;;;6.11;100.00
53719;BME280;39616;48.872;9.390;2023-04-09T05:43:04;99016.44;;;6.21;100.00
53719;BME280;39616;48.872;9.390;2023-04-09T05:45:35;99017.66;;;6.30;99.43
53719;BME280;39616;48.872;9.390;2023-04-09T05:48:05;99021.03;;;6.42;99.80
53719;BME280;39616;48.872;9.390;2023-04-09T05:50:35;99018.47;;;6.58;97.34
53719;BME280;39616;48.872;9.390;2023-04-09T05:53:06;99018.59;;;6.68;96.04
53719;BME280;39616;48.872;9.390;2023-04-09T05:55:36;99024.53;;;6.70;94.41
53719;BME280;39616;48.872;9.390;2023-04-09T05:58:06;99021.72;;;6.82;94.21
53719;BME280;39616;48.872;9.390;2023-04-09T06:00:37;99018.78;;;6.88;92.57
53719;BME280;39616;48.872;9.390;2023-04-09T06:03:08;99028.06;;;6.97;91.94
53719;BME280;39616;48.872;9.390;2023-04-09T06:05:38;99028.88;;;6.98;91.75
53719;BME280;39616;48.872;9.390;2023-04-09T06:08:09;99024.75;;;6.90;90.83
53719;BME280;39616;48.872;9.390;2023-04-09T06:10:39;99026.94;;;6.93;90.95
53719;BME280;39616;48.872;9.390;2023-04-09T06:13:10;99031.03;;;6.96;90.92
53719;BME280;39616;48.872;9.390;2023-04-09T06:15:40;99034.81;;;7.00;90.59
53719;BME280;39616;48.872;9.390;2023-04-09T06:18:10;99031.34;;;7.05;90.26
53719;BME280;39616;48.872;9.390;2023-04-09T06:20:41;99028.69;;;7.10;90.37
53719;BME280;39616;48.872;9.390;2023-04-09T06:23:11;99027.47;;;7.22;89.95
53719;BME280;39616;48.872;9.390;2023-04-09T06:25:41;99030.22;;;7.33;88.36
53719;BME280;39616;48.872;9.390;2023-04-09T06:28:12;99023.50;;;7.35;87.98
53719;BME280;39616;48.872;9.390;2023-04-09T06:30:42;99028.06;;;7.30;87.71
53719;BME280;39616;48.872;9.390;2023-04-09T06:33:12;99029.22;;;7.39;87.85
53719;BME280;39616;48.872;9.390;2023-04-09T06:35:43;99015.22;;;7.47;87.37
53719;BME280;39616;48.872;9.390;2023-04-09T06:38:14;99015.50;;;7.45;85.50
53719;BME280;39616;48.872;9.390;2023-04-09T06:40:45;99018.88;;;7.63;84.99
53719;BME280;39616;48.872;9.390;2023-04-09T06:43:15;99019.50;;;7.80;84.72
53719;BME280;39616;48.872;9.390;2023-04-09T06:45:45;99025.00;;;7.95;83.30
53719;BME280;39616;48.872;9.390;2023-04-09T06:48:16;99021.53;;;8.05;81.27
53719;BME280;39616;48.872;9.390;2023-04-09T06:50:46;99022.44;;;8.26;81.57
53719;BME280;39616;48.872;9.390;2023-04-09T06:53:17;99020.81;;;8.30;79.24
53719;BME280;39616;48.872;9.390;2023-04-09T06:55:47;99024.94;;;8.38;79.53
53719;BME280;39616;48.872;9.390;2023-04-09T06:58:17;99020.13;;;8.55;78.25
53719;BME280;39616;48.872;9.390;2023-04-09T07:00:48;99023.97;;;8.69;78.42
53719;BME280;39616;48.872;9.390;2023-04-09T07:03:18;99027.53;;;8.95;78.58
53719;BME280;39616;48.872;9.390;2023-04-09T07:05:48;99028.59;;;9.05;76.24
53719;BME280;39616;48.872;9.390;2023-04-09T07:08:19;99023.50;;;9.29;75.67
53719;BME280;39616;48.872;9.390;2023-04-09T07:10:51;99028.06;;;9.38;74.10
53719;BME280;39616;48.872;9.390;2023-04-09T07:13:22;99027.81;;;9.45;74.59
53719;BME280;39616;48.872;9.390;2023-04-09T07:15:52;99041.06;;;9.62;73.75
53719;BME280;39616;48.872;9.390;2023-04-09T07:18:22;99046.19;;;9.63;71.89
53719;BME280;39616;48.872;9.390;2023-04-09T07:20:53;99055.94;;;9.80;70.62
53719;BME280;39616;48.872;9.390;2023-04-09T07:23:24;99036.66;;;10.07;69.86
53719;BME280;39616;48.872;9.390;2023-04-09T07:25:55;99048.78;;;10.20;69.94
53719;BME280;39616;48.872;9.390;2023-04-09T07:28:25;99052.84;;;10.22;69.42
53719;BME280;39616;48.872;9.390;2023-04-09T07:30:56;99047.72;;;10.21;68.01
53719;BME280;39616;48.872;9.390;2023-04-09T07:33:26;99044.06;;;10.61;68.19
53719;BME280;39616;48.872;9.390;2023-04-09T07:35:56;99048.91;;;10.69;66.50
53719;BME280;39616;48.872;9.390;2023-04-09T07:38:30;99045.69;;;10.62;66.51
53719;BME280;39616;48.872;9.390;2023-04-09T07:41:00;99048.56;;;10.81;66.43
53719;BME280;39616;48.872;9.390;2023-04-09T07:43:30;99044.69;;;10.97;65.32
53719;BME280;39616;48.872;9.390;2023-04-09T07:46:01;99043.34;;;10.89;65.35
53719;BME280;39616;48.872;9.390;2023-04-09T07:48:31;99043.50;;;11.08;65.70
53719;BME280;39616;48.872;9.390;2023-04-09T07:51:02;99043.66;;;11.27;64.70
53719;BME280;39616;48.872;9.390;2023-04-09T07:53:32;99043.78;;;11.41;62.59
53719;BME280;39616;48.872;9.390;2023-04-09T07:56:03;99050.19;;;11.90;62.84
53719;BME280;39616;48.872;9.390;2023-04-09T07:58:33;99050.00;;;11.47;60.08
53719;BME280;39616;48.872;9.390;2023-04-09T08:01:04;99055.44;;;11.76;60.73
53719;BME280;39616;48.872;9.390;2023-04-09T08:03:34;99061.59;;;11.57;60.75
53719;BME280;39616;48.872;9.390;2023-04-09T08:06:05;99050.81;;;11.76;60.64
53719;BME280;39616;48.872;9.390;2023-04-09T08:08:36;99052.88;;;11.60;60.74
53719;BME280;39616;48.872;9.390;2023-04-09T08:11:06;99058.16;;;11.76;60.54
53719;BME280;39616;48.872;9.390;2023-04-09T08:13:37;99058.50;;;11.69;59.73
53719;BME280;39616;48.872;9.390;2023-04-09T08:16:07;99055.03;;;11.93;60.61
53719;BME280;39616;48.872;9.390;2023-04-09T08:18:37;99051.75;;;12.20;59.64
53719;BME280;39616;48.872;9.390;2023-04-09T08:21:08;99052.28;;;12.46;58.97
53719;BME280;39616;48.872;9.390;2023-04-09T08:23:39;99051.47;;;12.21;56.46
53719;BME280;39616;48.872;9.390;2023-04-09T08:26:09;99060.13;;;12.71;56.38
53719;BME280;39616;48.872;9.390;2023-04-09T08:28:39;99050.50;;;12.55;55.75
53719;BME280;39616;48.872;9.390;2023-04-09T08:31:11;99057.41;;;12.47;56.43
53719;BME280;39616;48.872;9.390;2023-04-09T08:33:41;99054.72;;;12.66;55.70
53719;BME280;39616;48.872;9.390;2023-04-09T08:36:11;99055.63;;;12.99;55.15
53719;BME280;39616;48.872;9.390;2023-04-09T08:38:42;99057.47;;;13.23;53.99
53719;BME280;39616;48.872;9.390;2023-04-09T08:41:18;99061.25;;;13.27;53.27
53719;BME280;39616;48.872;9.390;2023-04-09T08:43:50;99067.31;;;12.81;54.15
53719;BME280;39616;48.872;9.390;2023-04-09T08:46:22;99061.28;;;13.60;52.44
53719;BME280;39616;48.872;9.390;2023-04-09T08:48:53;99068.03;;;13.29;52.62
53719;BME280;39616;48.872;9.390;2023-04-09T08:51:23;99063.34;;;12.92;53.08
53719;BME280;39616;48.872;9.390;2023-04-09T08:53:56;99076.47;;;12.90;54.14
53719;BME280;39616;48.872;9.390;2023-04-09T08:56:27;99071.13;;;12.61;53.69
53719;BME280;39616;48.872;9.390;2023-04-09T08:58:57;99068.00;;;13.11;54.32
53719;BME280;39616;48.872;9.390;2023-04-09T09:01:28;99061.81;;;13.75;52.70
53719;BME280;39616;48.872;9.390;2023-04-09T09:04:07;99064.31;;;14.05;51.12
53719;BME280;39616;48.872;9.390;2023-04-09T09:06:39;99068.00;;;13.48;52.45
53719;BME280;39616;48.872;9.390;2023-04-09T09:09:10;99066.69;;;13.78;51.41
53719;BME280;39616;48.872;9.390;2023-04-09T09:11:43;99076.75;;;13.45;51.61
53719;BME280;39616;48.872;9.390;2023-04-09T09:14:16;99070.09;;;13.38;52.33
53719;BME280;39616;48.872;9.390;2023-04-09T09:19:29;99070.06;;;14.03;51.11
53719;BME280;39616;48.872;9.390;2023-04-09T09:22:05;99069.25;;;14.16;50.04
53719;BME280;39616;48.872;9.390;2023-04-09T09:24:48;99058.34;;;14.71;48.42
53719;BME280;39616;48.872;9.390;2023-04-09T09:27:36;99067.66;;;14.43;48.15
53719;BME280;39616;48.872;9.390;2023-04-09T09:30:20;99066.56;;;14.44;49.33
53719;BME280;39616;48.872;9.390;2023-04-09T09:32:52;99073.25;;;13.45;51.18
53719;BME280;39616;48.872;9.390;2023-04-09T09:35:23;99072.28;;;13.36;51.30
53719;BME280;39616;48.872;9.390;2023-04-09T09:38:03;99067.53;;;14.20;50.49
53719;BME280;39616;48.872;9.390;2023-04-09T09:40:33;99070.09;;;13.84;48.74
53719;BME280;39616;48.872;9.390;2023-04-09T09:43:03;99068.78;;;14.14;48.42
53719;BME280;39616;48.872;9.390;2023-04-09T09:45:35;99065.22;;;14.83;46.86
53719;BME280;39616;48.872;9.390;2023-04-09T09:48:06;99064.56;;;15.13;45.56
53719;BME280;39616;48.872;9.390;2023-04-09T09:50:38;99072.91;;;15.76;44.17
53719;BME280;39616;48.872;9.390;2023-04-09T09:53:10;99061.53;;;15.82;44.42
53719;BME280;39616;48.872;9.390;2023-04-09T09:55:44;99066.00;;;16.49;45.10
53719;BME280;39616;48.872;9.390;2023-04-09T09:58:22;99060.94;;;16.74;44.27
53719;BME280;39616;48.872;9.390;2023-04-09T10:00:54;99072.72;;;15.72;42.93
53719;BME280;39616;48.872;9.390;2023-04-09T10:03:28;99066.84;;;14.15;45.70
53719;BME280;39616;48.872;9.390;2023-04-09T10:06:00;99073.50;;;14.22;46.20
53719;BME280;39616;48.872;9.390;2023-04-09T10:08:32;99065.94;;;14.74;44.50
53719;BME280;39616;48.872;9.390;2023-04-09T10:11:04;99063.00;;;14.85;42.75
53719;BME280;39616;48.872;9.390;2023-04-09T10:13:42;99062.34;;;15.02;43.28
53719;BME280;39616;48.872;9.390;2023-04-09T10:16:13;99060.69;;;15.14;43.97
53719;BME280;39616;48.872;9.390;2023-04-09T10:18:43;99054.78;;;14.98;44.04
53719;BME280;39616;48.872;9.390;2023-04-09T10:24:07;99059.38;;;15.12;43.40
53719;BME280;39616;48.872;9.390;2023-04-09T10:26:42;99056.63;;;14.20;43.72
53719;BME280;39616;48.872;9.390;2023-04-09T10:29:15;99058.94;;;14.13;45.83
53719;BME280;39616;48.872;9.390;2023-04-09T10:34:17;99062.13;;;13.88;44.41
53719;BME280;39616;48.872;9.390;2023-04-09T10:36:55;99061.13;;;13.51;44.92
53719;BME280;39616;48.872;9.390;2023-04-09T10:39:26;99058.78;;;13.06;45.47
53719;BME280;39616;48.872;9.390;2023-04-09T10:42:19;99054.31;;;12.97;46.78
53719;BME280;39616;48.872;9.390;2023-04-09T10:45:13;99056.84;;;13.64;46.13
53719;BME280;39616;48.872;9.390;2023-04-09T10:47:48;99051.38;;;14.38;42.37
53719;BME280;39616;48.872;9.390;2023-04-09T10:50:23;99055.63;;;14.16;43.35
53719;BME280;39616;48.872;9.390;2023-04-09T10:52:55;99056.09;;;13.25;44.11
53719;BME280;39616;48.872;9.390;2023-04-09T10:55:40;99039.66;;;13.96;44.66
53719;BME280;39616;48.872;9.390;2023-04-09T10:58:10;99041.50;;;14.56;43.40
53719;BME280;39616;48.872;9.390;2023-04-09T11:00:46;99041.06;;;15.12;42.05
53719;BME280;39616;48.872;9.390;2023-04-09T11:03:26;99035.88;;;15.69;41.32
53719;BME280;39616;48.872;9.390;2023-04-09T11:06:02;99039.84;;;15.41;40.79
53719;BME280;39616;48.872;9.390;2023-04-09T11:08:35;99032.03;;;16.02;39.80
53719;BME280;39616;48.872;9.390;2023-04-09T11:11:07;99032.78;;;16.25;39.05
53719;BME280;39616;48.872;9.390;2023-04-09T11:13:39;99027.50;;;16.46;39.51
53719;BME280;39616;48.872;9.390;2023-04-09T11:16:10;99039.75;;;16.48;39.16
53719;BME280;39616;48.872;9.390;2023-04-09T11:18:41;99026.16;;;15.86;38.95
53719;BME280;39616;48.872;9.390;2023-04-09T11:21:11;99025.44;;;16.03;39.85
53719;BME280;39616;48.872;9.390;2023-04-09T11:23:50;99027.34;;;15.71;40.28
53719;BME280;39616;48.872;9.390;2023-04-09T11:26:34;99028.22;;;15.80;40.27
53719;BME280;39616;48.872;9.390;2023-04-09T11:29:08;99018.41;;;15.12;39.91
53719;BME280;39616;48.872;9.390;2023-04-09T11:31:43;99022.91;;;14.94;41.63
53719;BME280;39616;48.872;9.390;2023-04-09T11:34:13;99030.34;;;14.24;42.01
53719;BME280;39616;48.872;9.390;2023-04-09T11:36:48;99023.22;;;14.56;42.62
53719;BME280;39616;48.872;9.390;2023-04-09T11:39:18;99023.53;;;14.91;41.56
53719;BME280;39616;48.872;9.390;2023-04-09T11:41:48;99022.72;;;14.90;41.31
53719;BME280;39616;48.872;9.390;2023-04-09T11:44:19;99013.13;;;15.38;41.50
53719;BME280;39616;48.872;9.390;2023-04-09T11:46:50;99011.94;;;15.53;42.17
53719;BME280;39616;48.872;9.390;2023-04-09T11:49:21;99021.94;;;15.12;41.46
53719;BME280;39616;48.872;9.390;2023-04-09T11:51:51;99017.38;;;15.21;40.65
53719;BME280;39616;48.872;9.390;2023-04-09T11:54:22;99020.28;;;15.25;41.76
53719;BME280;39616;48.872;9.390;2023-04-09T11:56:52;99012.19;;;15.65;42.46
53719;BME280;39616;48.872;9.390;2023-04-09T11:59:25;99011.44;;;16.04;40.65
53719;BME280;39616;48.872;9.390;2023-04-09T12:01:59;99014.84;;;15.79;39.58
53719;BME280;39616;48.872;9.390;2023-04-09T12:04:29;99007.06;;;15.94;40.46
53719;BME280;39616;48.872;9.390;2023-04-09T12:07:00;99015.00;;;15.74;40.26
53719;BME280;39616;48.872;9.390;2023-04-09T12:09:30;99007.28;;;15.08;40.08
53719;BME280;39616;48.872;9.390;2023-04-09T12:12:00;99002.06;;;14.98;40.05
53719;BME280;39616;48.872;9.390;2023-04-09T12:14:31;99003.63;;;15.13;40.23
53719;BME280;39616;48.872;9.390;2023-04-09T12:17:01;98998.91;;;14.68;41.03
53719;BME280;39616;48.872;9.390;2023-04-09T12:19:35;99001.16;;;15.03;40.42
53719;BME280;39616;48.872;9.390;2023-04-09T12:22:05;99000.72;;;15.09;39.90
53719;BME280;39616;48.872;9.390;2023-04-09T12:24:35;99004.88;;;15.29;39.94
53719;BME280;39616;48.872;9.390;2023-04-09T12:27:06;98998.72;;;15.46;39.84
53719;BME280;39616;48.872;9.390;2023-04-09T12:29:36;98998.81;;;15.32;40.14
53719;BME280;39616;48.872;9.390;2023-04-09T12:32:06;98999.88;;;15.54;39.49
53719;BME280;39616;48.872;9.390;2023-04-09T12:34:37;98996.69;;;15.83;40.66
53719;BME280;39616;48.872;9.390;2023-04-09T12:37:08;98993.84;;;15.88;40.71
53719;BME280;39616;48.872;9.390;2023-04-09T12:39:38;98991.00;;;16.02;38.88
53719;BME280;39616;48.872;9.390;2023-04-09T12:42:08;98991.69;;;15.54;39.08
53719;BME280;39616;48.872;9.390;2023-04-09T12:44:38;99002.44;;;15.28;38.59
53719;BME280;39616;48.872;9.390;2023-04-09T12:47:09;98995.78;;;14.97;39.46
53719;BME280;39616;48.872;9.390;2023-04-09T12:49:39;98992.50;;;14.87;39.79
53719;BME280;39616;48.872;9.390;2023-04-09T12:52:14;98988.66;;;14.88;40.15
53719;BME280;39616;48.872;9.390;2023-04-09T12:54:45;98986.38;;;15.04;40.11
53719;BME280;39616;48.872;9.390;2023-04-09T12:57:15;98980.13;;;15.26;39.20
53719;BME280;39616;48.872;9.390;2023-04-09T12:59:45;98980.59;;;15.50;39.50
53719;BME280;39616;48.872;9.390;2023-04-09T13:02:16;98969.69;;;15.59;39.19
53719;BME280;39616;48.872;9.390;2023-04-09T13:04:47;98965.00;;;15.82;38.94
53719;BME280;39616;48.872;9.390;2023-04-09T13:07:17;98969.22;;;15.88;38.62
53719;BME280;39616;48.872;9.390;2023-04-09T13:09:48;98958.38;;;16.23;38.23
53719;BME280;39616;48.872;9.390;2023-04-09T13:12:19;98957.59;;;16.22;37.98
53719;BME280;39616;48.872;9.390;2023-04-09T13:14:53;98950.41;;;16.61;39.31
53719;BME280;39616;48.872;9.390;2023-04-09T13:17:23;98944.03;;;16.83;38.73
53719;BME280;39616;48.872;9.390;2023-04-09T13:19:54;98958.59;;;16.43;38.56
53719;BME280;39616;48.872;9.390;2023-04-09T13:22:24;98956.78;;;16.30;38.04
53719;BME280;39616;48.872;9.390;2023-04-09T13:24:54;98939.78;;;16.51;37.76
53719;BME280;39616;48.872;9.390;2023-04-09T13:27:25;98949.88;;;16.24;37.86
53719;BME280;39616;48.872;9.390;2023-04-09T13:29:55;98962.47;;;15.94;38.07
53719;BME280;39616;48.872;9.390;2023-04-09T13:32:26;98961.69;;;15.62;38.29
53719;BME280;39616;48.872;9.390;2023-04-09T13:34:56;98953.56;;;15.17;39.65
53719;BME280;39616;48.872;9.390;2023-04-09T13:37:27;98948.56;;;14.74;40.57
53719;BME280;39616;48.872;9.390;2023-04-09T13:39:57;98947.41;;;14.39;41.01
53719;BME280;39616;48.872;9.390;2023-04-09T13:42:27;98949.94;;;14.49;40.53
53719;BME280;39616;48.872;9.390;2023-04-09T13:44:58;98939.53;;;14.88;39.90